createdAt,value
2022-12-23T00:01:20.114Z,-3.45
2022-12-23T00:03:48.737Z,-3.47
2022-12-23T00:06:19.078Z,-3.47
2022-12-23T00:08:47.733Z,-3.49
2022-12-23T00:11:20.554Z,-3.53
2022-12-23T00:14:08.005Z,-3.49
2022-12-23T00:16:37.972Z,-3.48
2022-12-23T00:19:06.623Z,-3.49
2022-12-23T00:21:36.286Z,-3.49
2022-12-23T00:24:05.488Z,-3.48
2022-12-23T00:26:34.051Z,-3.50
2022-12-23T00:29:04.725Z,-3.48
2022-12-23T00:31:33.605Z,-3.50
2022-12-23T00:34:02.216Z,-3.49
2022-12-23T00:36:31.493Z,-3.47
2022-12-23T00:39:19.127Z,-3.48
2022-12-23T00:42:05.895Z,-3.45
2022-12-23T00:44:34.655Z,-3.47
2022-12-23T00:47:03.225Z,-3.54
2022-12-23T00:49:43.682Z,-3.60
2022-12-23T00:52:17.779Z,-3.61
2022-12-23T00:54:46.464Z,-3.57
2022-12-23T00:57:15.047Z,-3.58
2022-12-23T00:59:43.674Z,-3.54
2022-12-23T01:02:31.291Z,-3.52
2022-12-23T01:05:18.534Z,-3.56
2022-12-23T01:07:47.162Z,-3.58
2022-12-23T01:10:15.895Z,-3.55
2022-12-23T01:12:44.659Z,-3.54
2022-12-23T01:15:13.250Z,-3.51
2022-12-23T01:17:41.777Z,-3.51
2022-12-23T01:20:11.391Z,-3.51
2022-12-23T01:22:39.969Z,-3.49
2022-12-23T01:25:09.569Z,-3.44
2022-12-23T01:27:38.167Z,-3.42
2022-12-23T01:30:10.111Z,-3.44
2022-12-23T01:32:38.622Z,-3.45
2022-12-23T01:35:09.205Z,-3.49
2022-12-23T01:37:37.800Z,-3.46
2022-12-23T01:40:08.984Z,-3.48
2022-12-23T01:42:44.476Z,-3.55
2022-12-23T01:45:30.624Z,-3.55
2022-12-23T01:48:02.188Z,-3.55
2022-12-23T01:50:45.275Z,-3.60
2022-12-23T01:53:52.947Z,-3.61
2022-12-23T01:56:32.792Z,-3.64
2022-12-23T01:59:38.162Z,-3.68
2022-12-23T02:02:25.170Z,-3.70
2022-12-23T02:04:54.959Z,-3.75
2022-12-23T02:07:41.894Z,-3.77
2022-12-23T02:10:11.282Z,-3.79
2022-12-23T02:13:20.312Z,-3.78
2022-12-23T02:16:18.357Z,-3.77
2022-12-23T02:19:02.640Z,-3.76
2022-12-23T02:22:15.766Z,-3.78
2022-12-23T02:25:18.583Z,-3.84
2022-12-23T02:28:00.987Z,-3.84
2022-12-23T02:30:59.448Z,-3.87
2022-12-23T02:33:41.601Z,-3.93
2022-12-23T02:36:39.079Z,-3.92
2022-12-23T02:39:44.558Z,-3.94
2022-12-23T02:42:31.308Z,-3.94
2022-12-23T02:45:23.176Z,-3.92
2022-12-23T02:48:15.238Z,-3.92
2022-12-23T02:50:46.381Z,-3.93
2022-12-23T02:53:30.868Z,-3.93
2022-12-23T02:56:02.460Z,-3.89
2022-12-23T02:58:41.558Z,-3.87
2022-12-23T03:01:11.884Z,-3.85
2022-12-23T03:03:41.921Z,-3.84
2022-12-23T03:06:43.554Z,-3.83
2022-12-23T03:09:43.322Z,-3.82
2022-12-23T03:12:36.414Z,-3.82
2022-12-23T03:15:13.688Z,-3.82
2022-12-23T03:18:01.246Z,-3.77
2022-12-23T03:21:07.221Z,-3.72
2022-12-23T03:24:10.230Z,-3.71
2022-12-23T03:27:16.573Z,-3.71
2022-12-23T03:30:19.037Z,-3.68
2022-12-23T03:32:53.792Z,-3.65
2022-12-23T03:35:34.042Z,-3.68
2022-12-23T03:38:03.748Z,-3.68
2022-12-23T03:40:48.429Z,-3.67
2022-12-23T03:43:25.643Z,-3.68
2022-12-23T03:46:03.379Z,-3.66
2022-12-23T03:48:40.517Z,-3.64
2022-12-23T03:51:20.665Z,-3.63
2022-12-23T03:54:14.413Z,-3.59
2022-12-23T03:56:53.459Z,-3.59
2022-12-23T03:59:28.517Z,-3.55
2022-12-23T04:02:04.174Z,-3.55
2022-12-23T04:05:33.050Z,-3.55
2022-12-23T04:08:32.523Z,-3.56
2022-12-23T04:11:02.331Z,-3.51
2022-12-23T04:13:32.066Z,-3.51
2022-12-23T04:16:03.388Z,-3.46
2022-12-23T04:18:32.092Z,-3.48
2022-12-23T04:21:00.834Z,-3.51
2022-12-23T04:23:29.653Z,-3.51
2022-12-23T04:25:58.340Z,-3.50
2022-12-23T04:28:26.950Z,-3.47
2022-12-23T04:30:55.637Z,-3.44
2022-12-23T04:33:24.310Z,-3.50
2022-12-23T04:35:52.878Z,-3.50
2022-12-23T04:38:21.625Z,-3.48
2022-12-23T04:40:50.335Z,-3.47
2022-12-23T04:43:19.007Z,-3.48
2022-12-23T04:45:52.077Z,-3.42
2022-12-23T04:48:21.112Z,-3.41
2022-12-23T04:50:49.695Z,-3.38
2022-12-23T04:53:18.310Z,-3.32
2022-12-23T04:55:51.749Z,-3.29
2022-12-23T04:58:22.354Z,-3.29
2022-12-23T05:01:04.928Z,-3.27
2022-12-23T05:03:33.753Z,-3.26
2022-12-23T05:06:02.833Z,-3.24
2022-12-23T05:08:32.154Z,-3.24
2022-12-23T05:11:01.110Z,-3.24
2022-12-23T05:13:29.669Z,-3.22
2022-12-23T05:15:58.385Z,-3.20
2022-12-23T05:18:26.875Z,-3.22
2022-12-23T05:20:55.652Z,-3.22
2022-12-23T05:23:24.620Z,-3.19
2022-12-23T05:25:54.724Z,-3.17
2022-12-23T05:28:24.389Z,-3.14
2022-12-23T05:31:05.626Z,-3.16
2022-12-23T05:33:35.301Z,-3.15
2022-12-23T05:36:05.237Z,-3.10
2022-12-23T05:38:34.478Z,-3.08
2022-12-23T05:41:03.856Z,-3.07
2022-12-23T05:43:32.602Z,-3.06
2022-12-23T05:46:01.337Z,-3.04
2022-12-23T05:48:30.191Z,-3.03
2022-12-23T05:50:58.805Z,-3.04
2022-12-23T05:53:27.531Z,-3.06
2022-12-23T05:55:56.331Z,-3.08
2022-12-23T05:58:25.505Z,-3.07
2022-12-23T06:00:54.179Z,-3.07
2022-12-23T06:03:23.216Z,-3.04
2022-12-23T06:05:52.542Z,-3.05
2022-12-23T06:08:21.601Z,-3.04
2022-12-23T06:10:50.447Z,-3.02
2022-12-23T06:13:19.177Z,-3.00
2022-12-23T06:15:47.799Z,-3.03
2022-12-23T06:18:16.497Z,-3.02
2022-12-23T06:20:48.872Z,-2.98
2022-12-23T06:23:17.583Z,-2.95
2022-12-23T06:25:46.473Z,-2.92
2022-12-23T06:28:15.355Z,-2.90
2022-12-23T06:30:43.921Z,-2.89
2022-12-23T06:33:12.612Z,-2.86
2022-12-23T06:35:41.350Z,-2.83
2022-12-23T06:38:12.239Z,-2.85
2022-12-23T06:40:41.342Z,-2.85
2022-12-23T06:43:11.524Z,-2.86
2022-12-23T06:45:41.138Z,-2.85
2022-12-23T06:48:09.948Z,-2.81
2022-12-23T06:50:38.739Z,-2.79
2022-12-23T06:53:07.546Z,-2.79
2022-12-23T06:55:36.607Z,-2.74
2022-12-23T06:58:06.729Z,-2.71
2022-12-23T07:00:35.843Z,-2.69
2022-12-23T07:03:04.813Z,-2.66
2022-12-23T07:05:37.594Z,-2.62
2022-12-23T07:08:06.687Z,-2.55
2022-12-23T07:10:35.428Z,-2.48
2022-12-23T07:13:04.250Z,-2.46
2022-12-23T07:15:33.108Z,-2.44
2022-12-23T07:18:01.881Z,-2.40
2022-12-23T07:20:30.572Z,-2.34
2022-12-23T07:22:59.796Z,-2.31
2022-12-23T07:25:28.765Z,-2.31
2022-12-23T07:27:57.814Z,-2.25
2022-12-23T07:30:27.142Z,-2.25
2022-12-23T07:32:55.986Z,-2.26
2022-12-23T07:35:24.908Z,-2.21
2022-12-23T07:37:58.218Z,-2.18
2022-12-23T07:40:27.769Z,-2.17
2022-12-23T07:42:59.126Z,-2.12
2022-12-23T07:45:29.706Z,-2.10
2022-12-23T07:48:02.807Z,-2.13
2022-12-23T07:50:32.212Z,-2.11
2022-12-23T07:53:01.173Z,-2.02
2022-12-23T07:55:30.045Z,-1.92
2022-12-23T07:57:59.031Z,-1.84
2022-12-23T08:00:27.902Z,-1.78
2022-12-23T08:02:56.968Z,-1.79
2022-12-23T08:05:26.130Z,-1.69
2022-12-23T08:07:55.208Z,-1.61
2022-12-23T08:10:23.997Z,-1.51
2022-12-23T08:12:52.967Z,-1.47
2022-12-23T08:15:22.792Z,-1.38
2022-12-23T08:17:51.569Z,-1.29
2022-12-23T08:20:20.332Z,-1.19
2022-12-23T08:22:49.034Z,-1.08
2022-12-23T08:25:18.098Z,-1.01
2022-12-23T08:27:46.767Z,-0.93
2022-12-23T08:30:16.815Z,-0.93
2022-12-23T08:32:45.717Z,-0.84
2022-12-23T08:35:14.667Z,-0.74
2022-12-23T08:37:43.496Z,-0.71
2022-12-23T08:40:12.443Z,-0.66
2022-12-23T08:42:41.202Z,-0.62
2022-12-23T08:45:10.615Z,-0.51
2022-12-23T08:47:39.547Z,-0.45
2022-12-23T08:50:09.000Z,-0.46
2022-12-23T08:52:37.803Z,-0.36
2022-12-23T08:55:06.850Z,-0.35
2022-12-23T08:57:35.837Z,-0.25
2022-12-23T09:00:05.056Z,-0.18
2022-12-23T09:02:34.249Z,-0.06
2022-12-23T09:05:03.174Z,-0.05
2022-12-23T09:07:32.259Z,-0.02
2022-12-23T09:10:01.160Z,0.06
2022-12-23T09:15:44.821Z,0.20
2022-12-23T09:18:13.789Z,0.26
2022-12-23T09:20:43.052Z,0.28
2022-12-23T09:23:11.897Z,0.31
2022-12-23T09:25:40.764Z,0.40
2022-12-23T09:28:09.787Z,0.48
2022-12-23T09:30:38.455Z,0.47
2022-12-23T09:33:09.260Z,0.53
2022-12-23T09:35:39.567Z,0.60
2022-12-23T09:38:08.228Z,0.71
2022-12-23T09:40:40.676Z,0.72
2022-12-23T09:43:37.378Z,0.76
2022-12-23T09:46:24.421Z,0.79
2022-12-23T09:49:15.395Z,0.85
2022-12-23T09:51:45.735Z,0.80
2022-12-23T09:58:03.243Z,0.94
2022-12-23T10:00:49.655Z,0.91
2022-12-23T10:03:34.577Z,0.93
2022-12-23T10:06:36.675Z,0.93
2022-12-23T10:09:08.155Z,0.95
2022-12-23T10:11:42.847Z,0.95
2022-12-23T10:14:32.549Z,0.91
2022-12-23T10:20:49.424Z,0.81
2022-12-23T10:23:36.918Z,0.77
2022-12-23T10:26:35.344Z,0.71
2022-12-23T10:29:21.352Z,0.77
2022-12-23T10:32:17.937Z,0.87
2022-12-23T10:35:01.508Z,0.89
2022-12-23T10:37:41.531Z,0.78
2022-12-23T10:40:20.194Z,0.78
2022-12-23T10:43:10.887Z,0.73
2022-12-23T10:46:17.430Z,0.76
2022-12-23T10:49:06.453Z,0.81
2022-12-23T10:52:06.029Z,0.81
2022-12-23T10:54:37.222Z,0.81
2022-12-23T10:57:07.474Z,0.81
2022-12-23T10:59:37.185Z,0.81
2022-12-23T11:02:12.027Z,0.86
2022-12-23T11:04:47.469Z,0.87
2022-12-23T11:10:25.945Z,0.92
2022-12-23T11:12:55.131Z,0.92
2022-12-23T11:19:02.208Z,0.96
2022-12-23T11:21:33.596Z,0.84
2022-12-23T11:24:19.864Z,0.77
2022-12-23T11:27:12.009Z,0.73
2022-12-23T11:29:54.347Z,0.69
2022-12-23T11:32:28.899Z,0.60
2022-12-23T11:34:57.808Z,0.63
2022-12-23T11:37:41.389Z,0.63
2022-12-23T11:40:27.168Z,0.61
2022-12-23T11:43:03.053Z,0.62
2022-12-23T11:45:37.410Z,0.63
2022-12-23T11:48:26.440Z,0.63
2022-12-23T11:51:01.639Z,0.63
2022-12-23T11:53:31.646Z,0.62
2022-12-23T11:56:10.917Z,0.69
2022-12-23T11:58:52.690Z,0.72
2022-12-23T12:01:25.435Z,0.78
2022-12-23T12:04:01.569Z,0.87
2022-12-23T12:06:32.926Z,0.92
2022-12-23T12:09:04.784Z,0.95
2022-12-23T12:11:44.982Z,1.00
2022-12-23T12:14:32.696Z,1.00
2022-12-23T12:17:17.308Z,1.03
2022-12-23T12:20:31.953Z,1.08
2022-12-23T12:23:30.905Z,1.17
2022-12-23T12:26:12.995Z,1.18
2022-12-23T12:28:47.666Z,1.24
2022-12-23T12:31:38.437Z,1.28
2022-12-23T12:34:44.429Z,1.32
2022-12-23T12:37:54.040Z,1.36
2022-12-23T12:40:41.406Z,1.34
2022-12-23T12:43:35.422Z,1.38
2022-12-23T12:46:21.141Z,1.42
2022-12-23T12:49:38.823Z,1.38
2022-12-23T12:52:19.968Z,1.32
2022-12-23T12:55:00.612Z,1.30
2022-12-23T12:57:32.072Z,1.28
2022-12-23T13:00:06.082Z,1.24
2022-12-23T13:03:14.180Z,1.19
2022-12-23T13:06:37.539Z,1.15
2022-12-23T13:09:25.836Z,1.06
2022-12-23T13:12:49.650Z,1.03
2022-12-23T13:15:39.746Z,0.97
2022-12-23T13:18:58.710Z,0.90
2022-12-23T13:21:56.582Z,0.84
2022-12-23T13:24:49.200Z,0.82
2022-12-23T13:27:41.108Z,0.85
2022-12-23T13:30:21.854Z,0.87
2022-12-23T13:33:35.572Z,0.89
2022-12-23T13:36:29.811Z,0.88
2022-12-23T13:39:23.526Z,0.81
2022-12-23T13:42:03.005Z,0.74
2022-12-23T13:44:35.608Z,0.70
2022-12-23T13:47:26.149Z,0.70
2022-12-23T13:50:24.303Z,0.64
2022-12-23T13:53:25.194Z,0.59
2022-12-23T13:56:39.325Z,0.55
2022-12-23T13:59:11.944Z,0.50
2022-12-23T14:01:40.467Z,0.47
2022-12-23T14:04:36.373Z,0.45
2022-12-23T14:07:06.868Z,0.43
2022-12-23T14:09:38.549Z,0.41
2022-12-23T14:12:31.285Z,0.39
2022-12-23T14:15:29.121Z,0.37
2022-12-23T14:18:55.189Z,0.30
2022-12-23T14:21:39.207Z,0.26
2022-12-23T14:24:22.771Z,0.23
2022-12-23T14:27:36.520Z,0.16
2022-12-23T14:30:42.861Z,0.11
2022-12-23T14:33:48.551Z,0.05
2022-12-23T14:36:25.672Z,-0.00
2022-12-23T14:39:12.863Z,-0.04
2022-12-23T14:45:43.521Z,-0.03
2022-12-23T14:48:44.729Z,-0.08
2022-12-23T14:51:35.886Z,-0.09
2022-12-23T14:54:07.674Z,-0.13
2022-12-23T14:56:39.551Z,-0.14
2022-12-23T14:59:26.938Z,-0.18
2022-12-23T15:02:16.708Z,-0.21
2022-12-23T15:04:54.888Z,-0.25
2022-12-23T15:07:41.121Z,-0.30
2022-12-23T15:10:20.578Z,-0.34
2022-12-23T15:12:57.815Z,-0.36
2022-12-23T15:15:30.930Z,-0.38
2022-12-23T15:18:12.252Z,-0.40
2022-12-23T15:20:45.265Z,-0.41
2022-12-23T15:23:17.471Z,-0.43
2022-12-23T15:25:49.941Z,-0.46
2022-12-23T15:28:24.513Z,-0.50
2022-12-23T15:30:56.432Z,-0.51
2022-12-23T15:36:37.639Z,-0.56
2022-12-23T15:39:21.003Z,-0.54
2022-12-23T15:41:49.743Z,-0.57
2022-12-23T15:44:26.515Z,-0.57
2022-12-23T15:46:55.264Z,-0.58
2022-12-23T15:49:23.990Z,-0.57
2022-12-23T15:52:19.907Z,-0.59
2022-12-23T15:55:21.940Z,-0.58
2022-12-23T15:57:52.342Z,-0.59
2022-12-23T16:00:51.936Z,-0.60
2022-12-23T16:03:35.099Z,-0.57
2022-12-23T16:06:24.550Z,-0.55
2022-12-23T16:09:25.512Z,-0.53
2022-12-23T16:12:04.306Z,-0.55
2022-12-23T16:14:42.901Z,-0.55
2022-12-23T16:17:11.549Z,-0.54
2022-12-23T16:20:27.384Z,-0.55
2022-12-23T16:23:03.470Z,-0.57
2022-12-23T16:25:33.792Z,-0.57
2022-12-23T16:28:13.820Z,-0.59
2022-12-23T16:30:43.301Z,-0.59
2022-12-23T16:33:54.680Z,-0.59
2022-12-23T16:36:26.629Z,-0.60
2022-12-23T16:39:07.589Z,-0.62
2022-12-23T16:41:36.263Z,-0.64
2022-12-23T16:44:06.089Z,-0.65
2022-12-23T16:46:42.977Z,-0.63
2022-12-23T16:49:19.649Z,-0.60
2022-12-23T16:51:49.520Z,-0.58
2022-12-23T16:54:20.845Z,-0.58
2022-12-23T16:56:50.622Z,-0.58
2022-12-23T16:59:20.073Z,-0.58
2022-12-23T17:01:49.540Z,-0.57
2022-12-23T17:04:18.479Z,-0.60
2022-12-23T17:06:48.817Z,-0.64
2022-12-23T17:09:42.996Z,-0.67
2022-12-23T17:12:11.725Z,-0.72
2022-12-23T17:14:40.471Z,-0.74
2022-12-23T17:17:16.130Z,-0.77
2022-12-23T17:19:45.229Z,-0.81
2022-12-23T17:22:13.942Z,-0.84
2022-12-23T17:24:42.624Z,-0.84
2022-12-23T17:27:17.966Z,-0.87
2022-12-23T17:29:46.992Z,-0.91
2022-12-23T17:32:18.122Z,-0.95
2022-12-23T17:34:46.947Z,-0.99
2022-12-23T17:37:20.935Z,-1.02
2022-12-23T17:39:49.958Z,-1.04
2022-12-23T17:42:25.782Z,-1.08
2022-12-23T17:44:54.973Z,-1.11
2022-12-23T17:47:24.893Z,-1.14
2022-12-23T17:49:53.725Z,-1.19
2022-12-23T17:52:24.853Z,-1.16
2022-12-23T17:54:53.899Z,-1.21
2022-12-23T17:57:26.526Z,-1.23
2022-12-23T17:59:58.212Z,-1.26
2022-12-23T18:02:33.171Z,-1.29
2022-12-23T18:05:10.413Z,-1.31
2022-12-23T18:07:39.650Z,-1.34
2022-12-23T18:10:16.401Z,-1.39
2022-12-23T18:12:49.733Z,-1.43
2022-12-23T18:15:43.386Z,-1.46
2022-12-23T18:18:36.776Z,-1.47
2022-12-23T18:21:27.866Z,-1.50
2022-12-23T18:23:59.952Z,-1.56
2022-12-23T18:26:28.503Z,-1.57
2022-12-23T18:28:57.075Z,-1.58
2022-12-23T18:31:27.578Z,-1.55
2022-12-23T18:33:56.644Z,-1.54
2022-12-23T18:36:33.136Z,-1.56
2022-12-23T18:39:02.069Z,-1.60
2022-12-23T18:41:32.356Z,-1.60
2022-12-23T18:44:03.633Z,-1.60
2022-12-23T18:46:32.369Z,-1.59
2022-12-23T18:49:01.034Z,-1.57
2022-12-23T18:51:29.656Z,-1.58
2022-12-23T18:53:58.313Z,-1.55
2022-12-23T18:56:26.891Z,-1.55
2022-12-23T18:58:55.430Z,-1.54
2022-12-23T19:01:24.086Z,-1.57
2022-12-23T19:03:53.101Z,-1.58
2022-12-23T19:06:22.141Z,-1.61
2022-12-23T19:08:51.317Z,-1.62
2022-12-23T19:11:21.386Z,-1.70
2022-12-23T19:13:53.523Z,-1.66
2022-12-23T19:16:22.632Z,-1.70
2022-12-23T19:18:52.003Z,-1.74
2022-12-23T19:21:21.482Z,-1.74
2022-12-23T19:23:53.210Z,-1.77
2022-12-23T19:26:22.388Z,-1.76
2022-12-23T19:28:51.192Z,-1.79
2022-12-23T19:31:20.074Z,-1.84
2022-12-23T19:33:49.132Z,-1.85
2022-12-23T19:36:27.276Z,-1.85
2022-12-23T19:38:59.303Z,-1.90
2022-12-23T19:41:27.980Z,-1.90
2022-12-23T19:43:56.826Z,-1.91
2022-12-23T19:46:25.655Z,-1.91
2022-12-23T19:48:54.457Z,-1.92
2022-12-23T19:51:23.141Z,-1.96
2022-12-23T19:53:52.931Z,-1.94
2022-12-23T19:56:22.190Z,-1.95
2022-12-23T19:58:51.262Z,-1.94
2022-12-23T20:01:25.594Z,-1.96
2022-12-23T20:03:56.139Z,-1.90
2022-12-23T20:06:35.553Z,-1.91
2022-12-23T20:09:06.942Z,-1.92
2022-12-23T20:11:40.044Z,-1.94
2022-12-23T20:14:10.130Z,-1.92
2022-12-23T20:16:39.893Z,-1.95
2022-12-23T20:19:08.983Z,-1.97
2022-12-23T20:21:38.043Z,-1.95
2022-12-23T20:24:07.392Z,-1.96
2022-12-23T20:26:36.217Z,-1.97
2022-12-23T20:29:05.935Z,-1.98
2022-12-23T20:31:37.773Z,-1.97
2022-12-23T20:34:11.081Z,-1.98
2022-12-23T20:36:39.797Z,-1.98
2022-12-23T20:39:08.648Z,-1.97
2022-12-23T20:41:37.342Z,-1.99
2022-12-23T20:46:54.997Z,-2.02
2022-12-23T20:49:24.231Z,-2.02
2022-12-23T20:51:53.137Z,-2.06
2022-12-23T20:54:26.351Z,-2.08
2022-12-23T20:56:58.666Z,-2.10
2022-12-23T20:59:27.245Z,-2.14
2022-12-23T21:01:59.484Z,-2.15
2022-12-23T21:04:28.344Z,-2.14
2022-12-23T21:06:57.027Z,-2.18
2022-12-23T21:09:25.602Z,-2.20
2022-12-23T21:11:54.524Z,-2.23
2022-12-23T21:14:23.066Z,-2.26
2022-12-23T21:16:51.744Z,-2.29
2022-12-23T21:19:25.892Z,-2.30
2022-12-23T21:21:54.870Z,-2.28
2022-12-23T21:24:23.785Z,-2.26
2022-12-23T21:26:56.588Z,-2.23
2022-12-23T21:29:26.601Z,-2.19
2022-12-23T21:31:55.738Z,-2.14
2022-12-23T21:34:24.756Z,-2.12
2022-12-23T21:36:53.404Z,-2.11
2022-12-23T21:39:22.084Z,-2.09
2022-12-23T21:41:51.680Z,-2.09
2022-12-23T21:44:20.529Z,-2.09
2022-12-23T21:46:51.797Z,-2.09
2022-12-23T21:49:21.545Z,-2.07
2022-12-23T21:53:52.496Z,-2.02
2022-12-23T21:56:28.650Z,-2.05
2022-12-23T21:59:05.504Z,-2.08
2022-12-23T22:01:35.235Z,-2.10
2022-12-23T22:04:04.249Z,-2.13
2022-12-23T22:06:37.387Z,-2.13
2022-12-23T22:09:08.153Z,-2.13
2022-12-23T22:11:37.520Z,-2.19
2022-12-23T22:14:10.632Z,-2.24
2022-12-23T22:16:39.367Z,-2.26
2022-12-23T22:19:09.459Z,-2.33
2022-12-23T22:21:40.012Z,-2.39
2022-12-23T22:24:09.420Z,-2.38
2022-12-23T22:26:42.159Z,-2.34
2022-12-23T22:29:11.738Z,-2.37
2022-12-23T22:31:49.971Z,-2.41
2022-12-23T22:34:22.064Z,-2.46
2022-12-23T22:36:50.861Z,-2.42
2022-12-23T22:39:21.916Z,-2.41
2022-12-23T22:41:52.236Z,-2.45
2022-12-23T22:44:21.985Z,-2.47
2022-12-23T22:46:50.955Z,-2.52
2022-12-23T22:49:19.833Z,-2.51
2022-12-23T22:51:48.451Z,-2.49
2022-12-23T22:54:17.202Z,-2.47
2022-12-23T22:56:48.940Z,-2.48
2022-12-23T22:59:24.125Z,-2.51
2022-12-23T23:01:54.199Z,-2.49
2022-12-23T23:04:23.439Z,-2.47
2022-12-23T23:06:52.068Z,-2.48
2022-12-23T23:09:22.776Z,-2.48
2022-12-23T23:11:51.969Z,-2.50
2022-12-23T23:14:20.688Z,-2.52
2022-12-23T23:16:49.281Z,-2.46
2022-12-23T23:19:20.692Z,-2.44
2022-12-23T23:21:49.366Z,-2.44
2022-12-23T23:24:18.090Z,-2.41
2022-12-23T23:26:46.694Z,-2.45
2022-12-23T23:29:15.315Z,-2.43
2022-12-23T23:31:44.651Z,-2.46
2022-12-23T23:34:14.232Z,-2.44
2022-12-23T23:36:43.139Z,-2.49
2022-12-23T23:39:13.287Z,-2.50
2022-12-23T23:41:43.852Z,-2.54
2022-12-23T23:44:12.937Z,-2.51
2022-12-23T23:46:41.499Z,-2.52
2022-12-23T23:49:10.054Z,-2.55
2022-12-23T23:51:41.681Z,-2.58
2022-12-23T23:54:10.695Z,-2.56
2022-12-23T23:56:39.735Z,-2.56
2022-12-23T23:59:09.374Z,-2.56
